TFS214 KMDW-KBNA
Flight info
| Callsign | TFS214 |
|---|---|
| Flight time | 0h 59m |
| Altitude | 35000 |
| Route | CMSKY CARYN CYBIL TONES RYYMN3 |
| Aircraft | A321/M-SDE3FGHIRWY/LB1 |
Departure
| Time | 2026-05-04 21:48 |
|---|---|
| Airport | Chicago Midway International Airport (KMDW) |
Arrival
| Time | 2026-05-04 22:48 |
|---|---|
| Airport | Nashville International Airport (KBNA) |
| Time | Latitude | Longitude | Altitude | Speed | Heading |
|---|---|---|---|---|---|
| 2026-05-04 21:36 | 41.78939 | -87.74233 | 629 ft | 0 kts | 108° |
| 2026-05-04 21:40 | 41.78939 | -87.74234 | 629 ft | 2 kts | 108° |
| 2026-05-04 21:40 | 41.78947 | -87.74265 | 631 ft | 4 kts | 108° |
| 2026-05-04 21:41 | 41.78955 | -87.74300 | 632 ft | 4 kts | 108° |
| 2026-05-04 21:41 | 41.78963 | -87.74334 | 634 ft | 4 kts | 108° |
| 2026-05-04 21:41 | 41.78971 | -87.74367 | 634 ft | 4 kts | 105° |
| 2026-05-04 21:41 | 41.78976 | -87.74395 | 634 ft | 0 kts | 100° |
| 2026-05-04 21:45 | 41.78979 | -87.74374 | 634 ft | 5 kts | 67° |
| 2026-05-04 21:45 | 41.79015 | -87.74342 | 632 ft | 6 kts | 23° |
| 2026-05-04 21:46 | 41.79052 | -87.74320 | 632 ft | 6 kts | 25° |
| 2026-05-04 21:46 | 41.79084 | -87.74292 | 629 ft | 5 kts | 41° |
| 2026-05-04 21:46 | 41.79090 | -87.74286 | 638 ft | 1 kts | 41° |
| 2026-05-04 21:46 | 41.79102 | -87.74272 | 639 ft | 6 kts | 40° |
| 2026-05-04 21:47 | 41.79169 | -87.74281 | 634 ft | 12 kts | 319° |
| 2026-05-04 21:47 | 41.79159 | -87.74358 | 633 ft | 0 kts | 223° |
| 2026-05-04 21:47 | 41.79075 | -87.74465 | 631 ft | 49 kts | 223° |
| 2026-05-04 21:48 | 41.78662 | -87.74985 | 630 ft | 111 kts | 223° |
| 2026-05-04 21:48 | 41.78015 | -87.75803 | 919 ft | 133 kts | 223° |
| 2026-05-04 21:48 | 41.77380 | -87.76612 | 1633 ft | 126 kts | 227° |
| 2026-05-04 21:48 | 41.76667 | -87.77550 | 1818 ft | 163 kts | 227° |
| 2026-05-04 21:49 | 41.75853 | -87.78607 | 2441 ft | 164 kts | 227° |
| 2026-05-04 21:49 | 41.74979 | -87.79734 | 2568 ft | 183 kts | 225° |
| 2026-05-04 21:49 | 41.74009 | -87.80975 | 2707 ft | 201 kts | 225° |
| 2026-05-04 21:49 | 41.72946 | -87.82329 | 2871 ft | 219 kts | 225° |
| 2026-05-04 21:50 | 41.71804 | -87.83786 | 3198 ft | 235 kts | 225° |
| 2026-05-04 21:50 | 41.70600 | -87.85320 | 3794 ft | 242 kts | 225° |
| 2026-05-04 21:50 | 41.69371 | -87.86886 | 4506 ft | 245 kts | 226° |
| 2026-05-04 21:50 | 41.68135 | -87.88466 | 5187 ft | 249 kts | 226° |
| 2026-05-04 21:51 | 41.66875 | -87.90076 | 5855 ft | 252 kts | 226° |
| 2026-05-04 21:51 | 41.65590 | -87.91706 | 6499 ft | 256 kts | 224° |
| 2026-05-04 21:51 | 41.64021 | -87.92889 | 7121 ft | 268 kts | 200° |
| 2026-05-04 21:51 | 41.62120 | -87.93006 | 7728 ft | 283 kts | 175° |
| 2026-05-04 21:52 | 41.60164 | -87.92516 | 8381 ft | 287 kts | 174° |
| 2026-05-04 21:52 | 41.58190 | -87.92005 | 9057 ft | 291 kts | 174° |
| 2026-05-04 21:52 | 41.56200 | -87.91492 | 9696 ft | 294 kts | 174° |
| 2026-05-04 21:52 | 41.54163 | -87.90971 | 10243 ft | 301 kts | 175° |
| 2026-05-04 21:53 | 41.52029 | -87.90438 | 10366 ft | 322 kts | 175° |
| 2026-05-04 21:53 | 41.49755 | -87.89876 | 10506 ft | 342 kts | 175° |
| 2026-05-04 21:53 | 41.47380 | -87.89284 | 10916 ft | 351 kts | 175° |
| 2026-05-04 21:53 | 41.44973 | -87.88677 | 11491 ft | 355 kts | 175° |
| 2026-05-04 21:54 | 41.42568 | -87.88072 | 12091 ft | 357 kts | 176° |
| 2026-05-04 21:54 | 41.40077 | -87.87835 | 12700 ft | 352 kts | 188° |
| 2026-05-04 21:54 | 41.37664 | -87.88040 | 13300 ft | 353 kts | 190° |
| 2026-05-04 21:54 | 41.35172 | -87.88279 | 13865 ft | 356 kts | 190° |
| 2026-05-04 21:55 | 41.32724 | -87.88515 | 14378 ft | 359 kts | 190° |
| 2026-05-04 21:55 | 41.30215 | -87.88756 | 14871 ft | 364 kts | 190° |
| 2026-05-04 21:55 | 41.27667 | -87.89002 | 15390 ft | 367 kts | 190° |
| 2026-05-04 21:55 | 41.25107 | -87.89236 | 15920 ft | 372 kts | 187° |
| 2026-05-04 21:56 | 41.22497 | -87.89197 | 16442 ft | 377 kts | 184° |
| 2026-05-04 21:56 | 41.19856 | -87.89111 | 16951 ft | 381 kts | 184° |
| 2026-05-04 21:56 | 41.17201 | -87.89022 | 17461 ft | 384 kts | 184° |
| 2026-05-04 21:56 | 41.14481 | -87.88935 | 17952 ft | 387 kts | 184° |
| 2026-05-04 21:57 | 41.11818 | -87.88853 | 18375 ft | 389 kts | 184° |
| 2026-05-04 21:57 | 41.09102 | -87.88771 | 18797 ft | 392 kts | 184° |
| 2026-05-04 21:57 | 41.06371 | -87.88687 | 19222 ft | 394 kts | 183° |
| 2026-05-04 21:57 | 41.03621 | -87.88603 | 19645 ft | 396 kts | 184° |
| 2026-05-04 21:58 | 41.00856 | -87.88520 | 20067 ft | 398 kts | 184° |
| 2026-05-04 21:58 | 40.98078 | -87.88435 | 20478 ft | 401 kts | 184° |
| 2026-05-04 21:58 | 40.95281 | -87.88350 | 20893 ft | 403 kts | 182° |
| 2026-05-04 21:58 | 40.92466 | -87.88264 | 21307 ft | 405 kts | 184° |
| 2026-05-04 21:59 | 40.89636 | -87.88180 | 21712 ft | 408 kts | 184° |
| 2026-05-04 21:59 | 40.86798 | -87.88096 | 22103 ft | 410 kts | 183° |
| 2026-05-04 21:59 | 40.83934 | -87.88011 | 22506 ft | 412 kts | 182° |
| 2026-05-04 21:59 | 40.81065 | -87.87923 | 22891 ft | 414 kts | 184° |
| 2026-05-04 22:00 | 40.78174 | -87.87836 | 23264 ft | 417 kts | 183° |
| 2026-05-04 22:00 | 40.75269 | -87.87749 | 23583 ft | 419 kts | 183° |
| 2026-05-04 22:00 | 40.72352 | -87.87659 | 23915 ft | 420 kts | 182° |
| 2026-05-04 22:00 | 40.69420 | -87.87569 | 24255 ft | 422 kts | 182° |
| 2026-05-04 22:01 | 40.66480 | -87.87480 | 24584 ft | 423 kts | 182° |
| 2026-05-04 22:01 | 40.63529 | -87.87394 | 24903 ft | 425 kts | 183° |
| 2026-05-04 22:01 | 40.60568 | -87.87305 | 25229 ft | 426 kts | 182° |
| 2026-05-04 22:01 | 40.57600 | -87.87217 | 25539 ft | 428 kts | 183° |
| 2026-05-04 22:02 | 40.54615 | -87.87130 | 25856 ft | 429 kts | 183° |
| 2026-05-04 22:02 | 40.51622 | -87.87043 | 26161 ft | 431 kts | 184° |
| 2026-05-04 22:02 | 40.48624 | -87.86952 | 26482 ft | 432 kts | 183° |
| 2026-05-04 22:02 | 40.45607 | -87.86861 | 26770 ft | 434 kts | 184° |
| 2026-05-04 22:03 | 40.42589 | -87.86774 | 27104 ft | 434 kts | 183° |
| 2026-05-04 22:03 | 40.39564 | -87.86690 | 27408 ft | 435 kts | 184° |
| 2026-05-04 22:03 | 40.36527 | -87.86603 | 27712 ft | 437 kts | 182° |
| 2026-05-04 22:03 | 40.33483 | -87.86508 | 27991 ft | 438 kts | 182° |
| 2026-05-04 22:04 | 40.30431 | -87.86214 | 28260 ft | 443 kts | 175° |
| 2026-05-04 22:04 | 40.27372 | -87.85600 | 28514 ft | 445 kts | 176° |
| 2026-05-04 22:04 | 40.24309 | -87.84989 | 28778 ft | 447 kts | 175° |
| 2026-05-04 22:04 | 40.21226 | -87.84379 | 28958 ft | 450 kts | 175° |
| 2026-05-04 22:05 | 40.18117 | -87.83768 | 29149 ft | 453 kts | 175° |
| 2026-05-04 22:05 | 40.14994 | -87.83154 | 29388 ft | 455 kts | 175° |
| 2026-05-04 22:05 | 40.11865 | -87.82539 | 29633 ft | 456 kts | 175° |
| 2026-05-04 22:05 | 40.08714 | -87.81921 | 29876 ft | 458 kts | 175° |
| 2026-05-04 22:06 | 40.05568 | -87.81308 | 30158 ft | 458 kts | 175° |
| 2026-05-04 22:06 | 40.02418 | -87.80691 | 30483 ft | 457 kts | 175° |
| 2026-05-04 22:06 | 39.99280 | -87.80077 | 30781 ft | 456 kts | 175° |
| 2026-05-04 22:06 | 39.96141 | -87.79462 | 31041 ft | 457 kts | 176° |
| 2026-05-04 22:07 | 39.93002 | -87.78849 | 31338 ft | 456 kts | 175° |
| 2026-05-04 22:07 | 39.89900 | -87.78244 | 31640 ft | 456 kts | 175° |
| 2026-05-04 22:07 | 39.86770 | -87.77635 | 31943 ft | 455 kts | 175° |
| 2026-05-04 22:07 | 39.83639 | -87.77024 | 32240 ft | 454 kts | 175° |
| 2026-05-04 22:08 | 39.80519 | -87.76417 | 32541 ft | 454 kts | 175° |
| 2026-05-04 22:08 | 39.77399 | -87.75812 | 32824 ft | 453 kts | 175° |
| 2026-05-04 22:08 | 39.74268 | -87.75201 | 33022 ft | 455 kts | 175° |
| 2026-05-04 22:08 | 39.71135 | -87.74591 | 33260 ft | 456 kts | 175° |
| 2026-05-04 22:09 | 39.68002 | -87.73981 | 33526 ft | 455 kts | 175° |
| 2026-05-04 22:09 | 39.64873 | -87.73374 | 33795 ft | 455 kts | 175° |
| 2026-05-04 22:09 | 39.61740 | -87.72766 | 34023 ft | 455 kts | 175° |
| 2026-05-04 22:09 | 39.58610 | -87.72160 | 34239 ft | 455 kts | 175° |
| 2026-05-04 22:10 | 39.55481 | -87.71556 | 34448 ft | 455 kts | 175° |
| 2026-05-04 22:10 | 39.52302 | -87.70941 | 34608 ft | 457 kts | 175° |
| 2026-05-04 22:10 | 39.49158 | -87.70331 | 34747 ft | 458 kts | 175° |
| 2026-05-04 22:11 | 39.42903 | -87.69119 | 34776 ft | 457 kts | 175° |
| 2026-05-04 22:11 | 39.36612 | -87.67910 | 34785 ft | 457 kts | 175° |
| 2026-05-04 22:12 | 39.30321 | -87.66707 | 34775 ft | 457 kts | 175° |
| 2026-05-04 22:12 | 39.24027 | -87.65501 | 34779 ft | 457 kts | 175° |
| 2026-05-04 22:13 | 39.17734 | -87.64290 | 34765 ft | 457 kts | 175° |
| 2026-05-04 22:13 | 39.11444 | -87.63088 | 34763 ft | 457 kts | 175° |
| 2026-05-04 22:14 | 39.05152 | -87.61891 | 34737 ft | 457 kts | 175° |
| 2026-05-04 22:14 | 38.98847 | -87.60695 | 34751 ft | 458 kts | 175° |
| 2026-05-04 22:15 | 38.92529 | -87.59495 | 34753 ft | 459 kts | 175° |
| 2026-05-04 22:15 | 38.86208 | -87.58290 | 34745 ft | 459 kts | 175° |
| 2026-05-04 22:16 | 38.79876 | -87.57089 | 34752 ft | 460 kts | 176° |
| 2026-05-04 22:16 | 38.73535 | -87.55892 | 34756 ft | 461 kts | 176° |
| 2026-05-04 22:17 | 38.67194 | -87.54699 | 34761 ft | 461 kts | 176° |
| 2026-05-04 22:17 | 38.60839 | -87.53501 | 34761 ft | 461 kts | 176° |
| 2026-05-04 22:18 | 38.54488 | -87.52301 | 34772 ft | 461 kts | 176° |
| 2026-05-04 22:18 | 38.48172 | -87.51117 | 34785 ft | 461 kts | 176° |
| 2026-05-04 22:19 | 38.41865 | -87.49933 | 34798 ft | 461 kts | 176° |
| 2026-05-04 22:19 | 38.35520 | -87.48747 | 34810 ft | 461 kts | 176° |
| 2026-05-04 22:20 | 38.29221 | -87.47571 | 34836 ft | 461 kts | 176° |
| 2026-05-04 22:20 | 38.22880 | -87.46393 | 34847 ft | 460 kts | 176° |
| 2026-05-04 22:21 | 38.16473 | -87.45213 | 34521 ft | 471 kts | 176° |
| 2026-05-04 22:21 | 38.13223 | -87.44617 | 34267 ft | 472 kts | 177° |
| 2026-05-04 22:21 | 38.09973 | -87.44019 | 34036 ft | 471 kts | 177° |
| 2026-05-04 22:21 | 38.06737 | -87.43416 | 33789 ft | 470 kts | 177° |
| 2026-05-04 22:22 | 38.03512 | -87.42808 | 33520 ft | 468 kts | 177° |
| 2026-05-04 22:22 | 38.00311 | -87.42100 | 33241 ft | 469 kts | 171° |
| 2026-05-04 22:22 | 37.97203 | -87.40806 | 32968 ft | 473 kts | 162° |
| 2026-05-04 22:22 | 37.94177 | -87.39162 | 32692 ft | 471 kts | 162° |
| 2026-05-04 22:23 | 37.91170 | -87.37532 | 32395 ft | 469 kts | 162° |
| 2026-05-04 22:23 | 37.88177 | -87.35912 | 32133 ft | 467 kts | 162° |
| 2026-05-04 22:23 | 37.85194 | -87.34299 | 31783 ft | 464 kts | 162° |
| 2026-05-04 22:23 | 37.82231 | -87.32704 | 31222 ft | 462 kts | 162° |
| 2026-05-04 22:24 | 37.79278 | -87.31124 | 30674 ft | 459 kts | 162° |
| 2026-05-04 22:24 | 37.76341 | -87.29552 | 30145 ft | 458 kts | 162° |
| 2026-05-04 22:24 | 37.73414 | -87.27985 | 29538 ft | 456 kts | 162° |
| 2026-05-04 22:24 | 37.71490 | -87.26954 | 29193 ft | 453 kts | 162° |
| 2026-05-04 22:25 | 37.68604 | -87.25404 | 28660 ft | 449 kts | 162° |
| 2026-05-04 22:25 | 37.65740 | -87.23871 | 28152 ft | 444 kts | 162° |
| 2026-05-04 22:25 | 37.62906 | -87.22357 | 27628 ft | 441 kts | 162° |
| 2026-05-04 22:25 | 37.60096 | -87.20857 | 27124 ft | 437 kts | 162° |
| 2026-05-04 22:26 | 37.57306 | -87.19371 | 26622 ft | 434 kts | 162° |
| 2026-05-04 22:26 | 37.54538 | -87.17900 | 26140 ft | 430 kts | 162° |
| 2026-05-04 22:26 | 37.51817 | -87.16453 | 25655 ft | 427 kts | 162° |
| 2026-05-04 22:26 | 37.49099 | -87.15006 | 25189 ft | 423 kts | 162° |
| 2026-05-04 22:27 | 37.46402 | -87.13567 | 24729 ft | 419 kts | 161° |
| 2026-05-04 22:27 | 37.43728 | -87.12139 | 24257 ft | 415 kts | 162° |
| 2026-05-04 22:27 | 37.41081 | -87.10730 | 23823 ft | 412 kts | 162° |
| 2026-05-04 22:27 | 37.38455 | -87.09336 | 23361 ft | 408 kts | 163° |
| 2026-05-04 22:28 | 37.35777 | -87.08321 | 22869 ft | 397 kts | 174° |
| 2026-05-04 22:28 | 37.33081 | -87.07946 | 22471 ft | 384 kts | 185° |
| 2026-05-04 22:28 | 37.30441 | -87.08035 | 22079 ft | 377 kts | 187° |
| 2026-05-04 22:28 | 37.27829 | -87.08144 | 21697 ft | 374 kts | 187° |
| 2026-05-04 22:29 | 37.25237 | -87.08241 | 21315 ft | 372 kts | 187° |
| 2026-05-04 22:29 | 37.22651 | -87.08330 | 20934 ft | 369 kts | 187° |
| 2026-05-04 22:29 | 37.20091 | -87.08419 | 20558 ft | 367 kts | 187° |
| 2026-05-04 22:29 | 37.17545 | -87.08510 | 20183 ft | 365 kts | 187° |
| 2026-05-04 22:30 | 37.15017 | -87.08602 | 19814 ft | 362 kts | 187° |
| 2026-05-04 22:30 | 37.12506 | -87.08694 | 19446 ft | 360 kts | 187° |
| 2026-05-04 22:30 | 37.10012 | -87.08786 | 19078 ft | 357 kts | 187° |
| 2026-05-04 22:30 | 37.07534 | -87.08881 | 18715 ft | 355 kts | 187° |
| 2026-05-04 22:31 | 37.05076 | -87.08972 | 18357 ft | 353 kts | 187° |
| 2026-05-04 22:31 | 37.02629 | -87.09066 | 17964 ft | 350 kts | 187° |
| 2026-05-04 22:31 | 37.00201 | -87.09159 | 17637 ft | 348 kts | 187° |
| 2026-05-04 22:31 | 36.97784 | -87.09251 | 17303 ft | 346 kts | 187° |
| 2026-05-04 22:32 | 36.95383 | -87.09342 | 16935 ft | 344 kts | 187° |
| 2026-05-04 22:32 | 36.93004 | -87.09429 | 16599 ft | 341 kts | 187° |
| 2026-05-04 22:32 | 36.90644 | -87.09512 | 16252 ft | 338 kts | 187° |
| 2026-05-04 22:32 | 36.88330 | -87.09596 | 15918 ft | 336 kts | 187° |
| 2026-05-04 22:33 | 36.86000 | -87.09681 | 15564 ft | 334 kts | 187° |
| 2026-05-04 22:33 | 36.83682 | -87.09735 | 15217 ft | 334 kts | 182° |
| 2026-05-04 22:33 | 36.81373 | -87.09315 | 14877 ft | 339 kts | 170° |
| 2026-05-04 22:33 | 36.79155 | -87.08258 | 14443 ft | 344 kts | 159° |
| 2026-05-04 22:34 | 36.77014 | -87.06932 | 14012 ft | 343 kts | 159° |
| 2026-05-04 22:34 | 36.74873 | -87.05611 | 13577 ft | 342 kts | 159° |
| 2026-05-04 22:34 | 36.72748 | -87.04303 | 13197 ft | 339 kts | 159° |
| 2026-05-04 22:34 | 36.70636 | -87.03001 | 12761 ft | 337 kts | 159° |
| 2026-05-04 22:35 | 36.68552 | -87.01720 | 12384 ft | 334 kts | 159° |
| 2026-05-04 22:35 | 36.66468 | -87.00448 | 11971 ft | 331 kts | 159° |
| 2026-05-04 22:35 | 36.64408 | -86.99192 | 11610 ft | 328 kts | 159° |
| 2026-05-04 22:35 | 36.62387 | -86.97940 | 11306 ft | 323 kts | 156° |
| 2026-05-04 22:36 | 36.60647 | -86.96202 | 11178 ft | 322 kts | 134° |
| 2026-05-04 22:36 | 36.59475 | -86.93855 | 11033 ft | 318 kts | 119° |
| 2026-05-04 22:36 | 36.58684 | -86.91293 | 10756 ft | 317 kts | 111° |
| 2026-05-04 22:36 | 36.58069 | -86.88667 | 10432 ft | 316 kts | 109° |
| 2026-05-04 22:37 | 36.57496 | -86.86038 | 10096 ft | 314 kts | 109° |
| 2026-05-04 22:37 | 36.56901 | -86.83437 | 9838 ft | 308 kts | 111° |
| 2026-05-04 22:37 | 36.56282 | -86.80936 | 9718 ft | 297 kts | 112° |
| 2026-05-04 22:37 | 36.55644 | -86.78536 | 9450 ft | 291 kts | 114° |
| 2026-05-04 22:38 | 36.54973 | -86.76125 | 8638 ft | 296 kts | 114° |
| 2026-05-04 22:38 | 36.54243 | -86.73736 | 7843 ft | 292 kts | 124° |
| 2026-05-04 22:38 | 36.53098 | -86.71722 | 7163 ft | 282 kts | 134° |
| 2026-05-04 22:38 | 36.51861 | -86.69884 | 6590 ft | 274 kts | 135° |
| 2026-05-04 22:39 | 36.50637 | -86.68100 | 5996 ft | 268 kts | 135° |
| 2026-05-04 22:39 | 36.49441 | -86.66356 | 5400 ft | 263 kts | 135° |
| 2026-05-04 22:39 | 36.48269 | -86.64643 | 4816 ft | 258 kts | 135° |
| 2026-05-04 22:39 | 36.47116 | -86.62953 | 4228 ft | 255 kts | 135° |
| 2026-05-04 22:40 | 36.45996 | -86.61304 | 4033 ft | 247 kts | 135° |
| 2026-05-04 22:40 | 36.44887 | -86.59736 | 4014 ft | 232 kts | 144° |
| 2026-05-04 22:40 | 36.43535 | -86.58923 | 4000 ft | 208 kts | 177° |
| 2026-05-04 22:40 | 36.42109 | -86.58930 | 4011 ft | 205 kts | 187° |
| 2026-05-04 22:41 | 36.40691 | -86.59072 | 4008 ft | 205 kts | 188° |
| 2026-05-04 22:41 | 36.39268 | -86.59231 | 4014 ft | 206 kts | 188° |
| 2026-05-04 22:41 | 36.37845 | -86.59391 | 4012 ft | 204 kts | 188° |
| 2026-05-04 22:41 | 36.36441 | -86.59553 | 4021 ft | 196 kts | 188° |
| 2026-05-04 22:42 | 36.35153 | -86.59710 | 4021 ft | 176 kts | 192° |
| 2026-05-04 22:42 | 36.34022 | -86.59988 | 4010 ft | 157 kts | 198° |
| 2026-05-04 22:42 | 36.32986 | -86.60339 | 4012 ft | 153 kts | 199° |
| 2026-05-04 22:42 | 36.31972 | -86.60717 | 4014 ft | 152 kts | 199° |
| 2026-05-04 22:43 | 36.30961 | -86.61105 | 4001 ft | 152 kts | 200° |
| 2026-05-04 22:43 | 36.29956 | -86.61497 | 3822 ft | 152 kts | 200° |
| 2026-05-04 22:43 | 36.28949 | -86.61892 | 3640 ft | 148 kts | 200° |
| 2026-05-04 22:43 | 36.27978 | -86.62274 | 3446 ft | 145 kts | 199° |
| 2026-05-04 22:44 | 36.27015 | -86.62653 | 3256 ft | 146 kts | 199° |
| 2026-05-04 22:44 | 36.26072 | -86.63024 | 3082 ft | 142 kts | 200° |
| 2026-05-04 22:44 | 36.25110 | -86.63403 | 2883 ft | 145 kts | 199° |
| 2026-05-04 22:44 | 36.24167 | -86.63774 | 2706 ft | 144 kts | 199° |
| 2026-05-04 22:45 | 36.23225 | -86.64145 | 2511 ft | 142 kts | 198° |
| 2026-05-04 22:45 | 36.21359 | -86.64880 | 2150 ft | 143 kts | 200° |
| 2026-05-04 22:45 | 36.20417 | -86.65250 | 1967 ft | 140 kts | 200° |
| 2026-05-04 22:46 | 36.19487 | -86.65615 | 1780 ft | 142 kts | 200° |
| 2026-05-04 22:46 | 36.18546 | -86.65985 | 1601 ft | 143 kts | 200° |
| 2026-05-04 22:46 | 36.17587 | -86.66363 | 1406 ft | 148 kts | 200° |
| 2026-05-04 22:46 | 36.16598 | -86.66751 | 1209 ft | 147 kts | 200° |
| 2026-05-04 22:47 | 36.15625 | -86.67132 | 978 ft | 145 kts | 201° |
| 2026-05-04 22:47 | 36.14649 | -86.67515 | 796 ft | 149 kts | 200° |
| 2026-05-04 22:47 | 36.13703 | -86.67889 | 632 ft | 136 kts | 201° |
| 2026-05-04 22:47 | 36.12867 | -86.68218 | 578 ft | 111 kts | 198° |
| 2026-05-04 22:48 | 36.12409 | -86.68396 | 574 ft | 36 kts | 198° |
| 2026-05-04 22:48 | 36.12203 | -86.68477 | 570 ft | 20 kts | 192° |
| 2026-05-04 22:48 | 36.12143 | -86.68399 | 576 ft | 8 kts | 107° |
| 2026-05-04 22:48 | 36.12130 | -86.68345 | 577 ft | 5 kts | 105° |
| 2026-05-04 22:49 | 36.12134 | -86.68315 | 580 ft | 0 kts | 66° |
| 2026-05-04 22:50 | 36.12141 | -86.68302 | 579 ft | 6 kts | 51° |
| 2026-05-04 22:50 | 36.12176 | -86.68282 | 577 ft | 7 kts | 18° |
| 2026-05-04 22:50 | 36.12256 | -86.68252 | 573 ft | 16 kts | 15° |
| 2026-05-04 22:50 | 36.12360 | -86.68215 | 573 ft | 15 kts | 16° |
| 2026-05-04 22:51 | 36.12454 | -86.68181 | 574 ft | 13 kts | 16° |
| 2026-05-04 22:51 | 36.12556 | -86.68145 | 577 ft | 18 kts | 16° |
| 2026-05-04 22:51 | 36.12673 | -86.68103 | 574 ft | 16 kts | 16° |
| 2026-05-04 22:51 | 36.12771 | -86.68069 | 577 ft | 13 kts | 16° |
| 2026-05-04 22:52 | 36.12858 | -86.68035 | 576 ft | 16 kts | 18° |
| 2026-05-04 22:52 | 36.12973 | -86.67990 | 573 ft | 18 kts | 17° |
| 2026-05-04 22:52 | 36.13070 | -86.67939 | 574 ft | 8 kts | 60° |
| 2026-05-04 22:52 | 36.13050 | -86.67866 | 576 ft | 12 kts | 128° |
| 2026-05-04 22:53 | 36.12985 | -86.67782 | 580 ft | 17 kts | 133° |
| 2026-05-04 22:53 | 36.12892 | -86.67661 | 571 ft | 20 kts | 134° |
| 2026-05-04 22:53 | 36.12806 | -86.67547 | 578 ft | 16 kts | 133° |
| 2026-05-04 22:53 | 36.12731 | -86.67449 | 574 ft | 18 kts | 134° |
| 2026-05-04 22:54 | 36.12636 | -86.67326 | 579 ft | 19 kts | 133° |
| 2026-05-04 22:54 | 36.12545 | -86.67207 | 578 ft | 20 kts | 133° |
| 2026-05-04 22:54 | 36.12453 | -86.67086 | 577 ft | 19 kts | 133° |
| 2026-05-04 22:54 | 36.12449 | -86.66983 | 577 ft | 15 kts | 39° |
| 2026-05-04 22:55 | 36.12545 | -86.66921 | 575 ft | 14 kts | 8° |
| 2026-05-04 22:55 | 36.12610 | -86.66979 | 573 ft | 4 kts | 264° |
| 2026-05-04 22:55 | 36.12588 | -86.67015 | 571 ft | 6 kts | 234° |
| 2026-05-04 22:55 | 36.12575 | -86.67036 | 575 ft | 1 kts | 237° |
| 2026-05-04 22:56 | 36.12574 | -86.67045 | 576 ft | 1 kts | 252° |
| 2026-05-04 22:56 | 36.12574 | -86.67046 | 576 ft | 0 kts | 252° |